Time;durP1;ratioP1;P1;durP2;ratioP2;P2;SDS_P1;SDS_P2;PMS_P1;PMS_P2;Temp;Humidity;BMP_temperature;BMP_pressure;BME280_temperature;BME280_humidity;BME280_pressure;Samples;Min_cycle;Max_cycle;Signal;HPM_P1;HPM_P2
2021/09/29 00:02:22;;;;;;;7.77;6.17;;;14.60;99.90;;;;;;5009288;28;20208;-78
2021/09/29 00:04:47;;;;;;;8.13;6.67;;;14.60;99.90;;;;;;5008683;28;20231;-79
2021/09/29 00:07:13;;;;;;;9.73;6.33;;;14.60;99.90;;;;;;5002397;28;20543;-79
2021/09/29 00:09:39;;;;;;;7.63;6.70;;;14.60;99.90;;;;;;5003171;28;20250;-79
2021/09/29 00:12:05;;;;;;;7.83;7.20;;;14.60;99.90;;;;;;5002963;28;20214;-79
2021/09/29 00:14:30;;;;;;;6.93;6.43;;;14.60;99.90;;;;;;5001393;28;20679;-79
2021/09/29 00:16:56;;;;;;;7.70;7.00;;;14.60;99.90;;;;;;5001448;28;20199;-79
2021/09/29 00:19:22;;;;;;;7.77;7.07;;;14.60;99.90;;;;;;5002383;28;20180;-79
2021/09/29 00:21:47;;;;;;;8.73;7.90;;;14.60;99.90;;;;;;5002221;28;20675;-79
2021/09/29 00:24:13;;;;;;;9.07;8.20;;;14.60;99.90;;;;;;5002479;28;20234;-79
2021/09/29 00:26:39;;;;;;;7.17;6.60;;;14.60;99.90;;;;;;5002773;28;20183;-79
2021/09/29 00:29:05;;;;;;;6.83;6.13;;;14.50;99.90;;;;;;5002199;28;20175;-79
2021/09/29 00:36:44;;;;;;;8.10;7.30;;;14.30;99.90;;;;;;5003192;28;20725;-79
2021/09/29 00:39:12;;;;;;;6.87;6.20;;;14.40;99.90;;;;;;5001873;28;20271;-79
2021/09/29 00:41:38;;;;;;;8.33;6.40;;;14.40;99.90;;;;;;5002221;28;20196;-78
2021/09/29 00:44:04;;;;;;;7.50;6.90;;;14.40;99.90;;;;;;5002474;28;20262;-80
2021/09/29 00:46:31;;;;;;;9.90;6.90;;;14.40;99.90;;;;;;5002376;28;20175;-78
2021/09/29 00:48:56;;;;;;;8.37;7.53;;;14.40;99.90;;;;;;5001881;28;20544;-78
2021/09/29 00:51:23;;;;;;;7.70;7.00;;;14.40;99.90;;;;;;5001492;28;20721;-78
2021/09/29 00:53:51;;;;;;;8.40;7.60;;;14.40;99.90;;;;;;5001292;28;20219;-79
2021/09/29 00:56:17;;;;;;;8.43;7.73;;;14.40;99.90;;;;;;5002026;28;20167;-78
2021/09/29 00:58:43;;;;;;;8.03;7.33;;;14.40;99.90;;;;;;4999377;28;20190;-79
2021/09/29 01:01:09;;;;;;;7.87;7.27;;;14.50;99.90;;;;;;5001153;28;20199;-79
2021/09/29 01:03:35;;;;;;;7.47;6.90;;;14.40;99.90;;;;;;4999683;28;20207;-78
2021/09/29 01:06:08;;;;;;;8.30;7.07;;;14.40;99.90;;;;;;5000311;28;20199;-79
2021/09/29 01:08:41;;;;;;;7.70;7.00;;;14.30;99.90;;;;;;4998120;28;20172;-78
2021/09/29 01:11:18;;;;;;;7.60;6.90;;;14.30;99.90;;;;;;4995327;28;20552;-79
2021/09/29 01:14:29;;;;;;;6.67;5.93;;;14.20;99.90;;;;;;5002159;28;20231;-79
2021/09/29 01:16:59;;;;;;;6.73;6.03;;;14.30;99.90;;;;;;5001904;28;20179;-79
2021/09/29 01:19:53;;;;;;;8.10;7.30;;;14.20;99.90;;;;;;5001072;28;20190;-78
2021/09/29 01:22:24;;;;;;;9.07;7.13;;;14.10;99.90;;;;;;4994499;28;20222;-79
2021/09/29 01:24:58;;;;;;;7.83;7.20;;;14.00;99.90;;;;;;5000062;28;20210;-79
2021/09/29 01:27:24;;;;;;;7.40;6.80;;;14.00;99.90;;;;;;4999854;28;20180;-79
2021/09/29 01:29:51;;;;;;;7.90;7.10;;;14.10;99.90;;;;;;4999196;28;20176;-79
2021/09/29 01:32:19;;;;;;;10.00;7.40;;;13.90;99.90;;;;;;5000846;28;20184;-79
2021/09/29 01:34:48;;;;;;;8.67;7.87;;;13.90;99.90;;;;;;5000552;28;20659;-78
2021/09/29 01:37:14;;;;;;;8.00;7.23;;;13.90;99.90;;;;;;5000353;28;20299;-80
2021/09/29 01:39:40;;;;;;;9.47;8.33;;;14.00;99.90;;;;;;5001124;28;20176;-78
2021/09/29 01:42:06;;;;;;;7.80;7.00;;;14.00;99.90;;;;;;5000594;28;20199;-78
2021/09/29 01:44:31;;;;;;;11.57;8.13;;;14.00;99.90;;;;;;5000631;28;20200;-79
2021/09/29 01:46:58;;;;;;;7.80;7.20;;;14.00;99.90;;;;;;4999639;28;20176;-78
2021/09/29 01:49:29;;;;;;;8.20;7.40;;;14.00;99.90;;;;;;4998483;28;20188;-78
2021/09/29 01:51:56;;;;;;;8.13;7.43;;;14.00;99.90;;;;;;4994669;28;20183;-79
2021/09/29 01:54:26;;;;;;;7.37;6.47;;;14.00;99.90;;;;;;4997619;28;20693;-79
2021/09/29 01:56:53;;;;;;;7.13;6.30;;;14.00;99.90;;;;;;5026075;23;20188;-81
2021/09/29 01:59:21;;;;;;;6.87;6.27;;;14.00;99.90;;;;;;4979693;28;20176;-81
2021/09/29 02:01:47;;;;;;;7.30;6.67;;;13.90;99.90;;;;;;4979226;28;20204;-81
2021/09/29 02:04:13;;;;;;;7.43;6.73;;;13.90;99.90;;;;;;4978573;28;20187;-81
2021/09/29 02:06:53;;;;;;;7.77;7.07;;;13.90;99.90;;;;;;4981823;28;20180;-81
2021/09/29 02:09:20;;;;;;;7.70;7.00;;;13.80;99.90;;;;;;4975710;28;20176;-81
2021/09/29 02:11:47;;;;;;;9.73;7.43;;;13.80;99.90;;;;;;4964784;28;20244;-79
2021/09/29 02:14:13;;;;;;;8.07;7.47;;;13.80;99.90;;;;;;4963315;28;20235;-81
2021/09/29 02:16:40;;;;;;;8.07;7.40;;;13.90;99.90;;;;;;4966753;28;20185;-81
2021/09/29 02:19:06;;;;;;;7.43;6.73;;;13.90;99.90;;;;;;4965231;28;20663;-80
2021/09/29 02:21:31;;;;;;;8.00;7.23;;;13.80;99.90;;;;;;4961658;28;20177;-80
2021/09/29 02:23:57;;;;;;;8.83;7.20;;;13.80;99.90;;;;;;4964663;28;20186;-81
2021/09/29 02:26:23;;;;;;;8.80;7.03;;;13.80;99.90;;;;;;4961379;28;20179;-80
2021/09/29 02:28:49;;;;;;;7.90;6.90;;;13.80;99.90;;;;;;4946014;28;20208;-81
2021/09/29 02:31:16;;;;;;;7.63;7.00;;;13.90;99.90;;;;;;4959724;28;20176;-81
2021/09/29 02:33:42;;;;;;;7.73;6.80;;;13.80;99.90;;;;;;4960052;28;20184;-80
2021/09/29 02:36:07;;;;;;;7.40;6.80;;;13.80;99.90;;;;;;4958114;28;20230;-81
2021/09/29 02:38:33;;;;;;;8.30;6.70;;;13.80;99.90;;;;;;4970571;28;20612;-81
2021/09/29 02:40:59;;;;;;;8.00;7.17;;;13.80;99.90;;;;;;4977805;28;20185;-81
2021/09/29 02:43:24;;;;;;;7.20;6.63;;;13.80;99.90;;;;;;4982008;28;20240;-81
2021/09/29 02:45:50;;;;;;;8.10;6.87;;;13.90;99.90;;;;;;4981767;28;20183;-81
2021/09/29 02:48:16;;;;;;;7.67;7.07;;;13.90;99.90;;;;;;4984292;28;20272;-81
2021/09/29 02:50:41;;;;;;;8.03;6.87;;;13.90;99.90;;;;;;4966046;28;20279;-81
2021/09/29 02:53:07;;;;;;;6.87;5.93;;;13.90;99.90;;;;;;4983594;28;20184;-81
2021/09/29 02:55:32;;;;;;;7.60;6.80;;;14.00;99.90;;;;;;4983319;28;20266;-81
2021/09/29 02:57:58;;;;;;;7.80;7.10;;;13.90;99.90;;;;;;4965592;28;20216;-81
2021/09/29 03:00:24;;;;;;;8.27;7.50;;;13.80;99.90;;;;;;4967143;28;20181;-81
2021/09/29 03:02:49;;;;;;;9.17;8.27;;;13.70;99.90;;;;;;4983815;28;20663;-81
2021/09/29 03:05:15;;;;;;;10.30;7.97;;;13.60;99.90;;;;;;4966862;28;20671;-81
2021/09/29 03:07:40;;;;;;;9.47;7.97;;;13.70;99.90;;;;;;4985612;28;20243;-80
2021/09/29 03:10:07;;;;;;;8.40;7.70;;;13.70;99.90;;;;;;4982374;28;20181;-81
2021/09/29 03:12:32;;;;;;;9.63;8.10;;;13.70;99.90;;;;;;4960622;28;20595;-81
2021/09/29 03:14:58;;;;;;;8.63;7.83;;;13.80;99.90;;;;;;4983920;28;20214;-81
2021/09/29 03:17:23;;;;;;;9.33;7.67;;;13.80;99.90;;;;;;4983486;28;20196;-81
2021/09/29 03:19:49;;;;;;;8.03;7.30;;;13.80;99.90;;;;;;4983464;28;20192;-81
2021/09/29 03:22:15;;;;;;;9.17;8.20;;;13.80;99.90;;;;;;4966324;28;20192;-82
2021/09/29 03:24:41;;;;;;;8.83;7.63;;;13.80;99.90;;;;;;4982951;28;20169;-81
2021/09/29 03:27:07;;;;;;;8.77;7.23;;;13.90;99.90;;;;;;4983432;28;20271;-81
2021/09/29 03:29:32;;;;;;;8.23;7.10;;;13.80;99.90;;;;;;4982862;28;20183;-81
2021/09/29 03:31:58;;;;;;;7.30;6.70;;;13.80;99.90;;;;;;4981730;28;20187;-81
2021/09/29 03:34:24;;;;;;;8.73;7.77;;;13.80;99.90;;;;;;4965024;28;20218;-81
2021/09/29 03:36:50;;;;;;;7.83;7.17;;;13.90;99.90;;;;;;4965149;28;20235;-81
2021/09/29 03:39:15;;;;;;;7.80;7.00;;;13.90;99.90;;;;;;4982638;28;20173;-81
2021/09/29 03:41:41;;;;;;;7.70;6.90;;;14.00;99.90;;;;;;4981876;28;20185;-81
2021/09/29 03:44:07;;;;;;;8.50;7.60;;;14.00;99.90;;;;;;4982329;28;20180;-81
2021/09/29 03:46:32;;;;;;;8.33;7.27;;;14.00;99.90;;;;;;4963704;28;20177;-81
2021/09/29 03:48:59;;;;;;;7.27;6.77;;;14.00;99.90;;;;;;4982372;28;20204;-81
2021/09/29 03:51:24;;;;;;;7.60;6.83;;;14.00;99.90;;;;;;4981694;28;20659;-81
2021/09/29 03:53:50;;;;;;;7.37;6.77;;;14.00;99.90;;;;;;4964302;28;20176;-81
2021/09/29 03:56:15;;;;;;;8.37;6.63;;;13.90;99.90;;;;;;4982279;28;20200;-81
2021/09/29 03:58:41;;;;;;;7.40;6.70;;;13.90;99.90;;;;;;4965100;28;20255;-81
2021/09/29 04:01:07;;;;;;;7.57;6.97;;;13.90;99.90;;;;;;4979254;28;20180;-81
2021/09/29 04:03:32;;;;;;;7.60;6.90;;;13.90;99.90;;;;;;4964256;28;20192;-81
2021/09/29 04:05:58;;;;;;;7.17;6.47;;;13.90;99.90;;;;;;4977388;28;20181;-81
2021/09/29 04:08:24;;;;;;;7.47;6.73;;;13.90;99.90;;;;;;4962473;28;20240;-81
2021/09/29 04:10:49;;;;;;;9.10;6.67;;;13.90;99.90;;;;;;4963461;28;20185;-81
2021/09/29 04:13:15;;;;;;;9.17;7.20;;;13.90;99.90;;;;;;4981786;28;21724;-81
2021/09/29 04:15:41;;;;;;;7.03;6.40;;;13.90;99.90;;;;;;4962864;28;20556;-81
2021/09/29 04:18:06;;;;;;;5.57;5.07;;;13.90;99.90;;;;;;4964677;28;20207;-82
2021/09/29 04:20:33;;;;;;;6.30;5.70;;;13.90;99.90;;;;;;4985335;28;20195;-81
2021/09/29 04:22:59;;;;;;;5.80;5.30;;;13.90;99.90;;;;;;4992489;28;20201;-81
2021/09/29 04:25:24;;;;;;;5.80;5.20;;;13.90;99.90;;;;;;4965165;28;20187;-81
2021/09/29 04:27:50;;;;;;;6.20;5.63;;;13.90;99.90;;;;;;4982589;28;20196;-81
2021/09/29 04:30:16;;;;;;;5.93;5.33;;;13.90;99.90;;;;;;4981973;28;20224;-81
2021/09/29 04:32:43;;;;;;;5.90;5.30;;;13.80;99.90;;;;;;4981441;28;20176;-81
2021/09/29 04:35:10;;;;;;;7.33;5.23;;;13.80;99.90;;;;;;4982447;28;20597;-81
2021/09/29 04:37:36;;;;;;;6.30;5.40;;;13.80;99.90;;;;;;4982037;28;20204;-81
2021/09/29 04:40:03;;;;;;;7.27;6.00;;;13.80;99.90;;;;;;4982352;28;20214;-81
2021/09/29 04:42:28;;;;;;;7.13;5.60;;;13.70;99.90;;;;;;4968768;28;20208;-81
2021/09/29 04:44:54;;;;;;;6.73;5.43;;;13.70;99.90;;;;;;4985115;28;20173;-81
2021/09/29 04:47:19;;;;;;;6.10;5.50;;;13.70;99.90;;;;;;4979581;28;20709;-80
2021/09/29 04:49:45;;;;;;;7.67;5.30;;;13.70;99.90;;;;;;4960773;28;20181;-81
2021/09/29 04:52:11;;;;;;;5.60;5.10;;;13.70;99.90;;;;;;4979627;28;20212;-81
2021/09/29 04:54:37;;;;;;;8.37;5.33;;;13.70;99.90;;;;;;4961801;28;20180;-81
2021/09/29 04:57:03;;;;;;;5.37;4.87;;;13.70;99.90;;;;;;4980087;28;20239;-81
2021/09/29 04:59:28;;;;;;;7.03;5.20;;;13.60;99.90;;;;;;4980080;28;20185;-81
2021/09/29 05:01:54;;;;;;;5.10;4.67;;;13.50;99.90;;;;;;4979196;28;20280;-81
2021/09/29 05:04:24;;;;;;;4.47;4.07;;;13.60;99.90;;;;;;4962310;28;20176;-81
2021/09/29 05:06:51;;;;;;;6.53;4.70;;;13.60;99.90;;;;;;4980343;28;20171;-81
2021/09/29 05:09:16;;;;;;;5.30;4.80;;;13.60;99.90;;;;;;4980611;28;20181;-81
2021/09/29 05:12:01;;;;;;;5.27;4.40;;;13.50;99.90;;;;;;4965645;28;20180;-81
2021/09/29 05:14:26;;;;;;;7.20;4.47;;;13.50;99.90;;;;;;4980599;28;20187;-81
2021/09/29 05:16:52;;;;;;;8.87;4.57;;;13.60;99.90;;;;;;4959139;28;20188;-81
2021/09/29 05:19:18;;;;;;;5.97;4.50;;;13.60;99.90;;;;;;4986303;28;20873;-81
2021/09/29 05:21:43;;;;;;;5.67;4.50;;;13.60;99.90;;;;;;4969216;28;20183;-81
2021/09/29 05:24:09;;;;;;;6.67;4.70;;;13.60;99.90;;;;;;4971569;28;20695;-82
2021/09/29 05:26:34;;;;;;;5.23;4.10;;;13.50;99.90;;;;;;4987449;28;20577;-81
2021/09/29 05:29:01;;;;;;;4.47;4.07;;;13.40;99.90;;;;;;4989071;28;20645;-82
2021/09/29 05:31:27;;;;;;;4.53;4.13;;;13.50;99.90;;;;;;4987913;28;20183;-81
2021/09/29 05:33:53;;;;;;;7.80;4.63;;;13.50;99.90;;;;;;4986940;28;20244;-81
2021/09/29 05:36:19;;;;;;;5.97;4.87;;;13.50;99.90;;;;;;4982653;28;20274;-82
2021/09/29 05:38:45;;;;;;;4.87;4.30;;;13.60;99.90;;;;;;4982917;28;20215;-79
2021/09/29 05:41:11;;;;;;;3.87;3.47;;;13.50;99.90;;;;;;4965806;28;20211;-82
2021/09/29 05:43:37;;;;;;;6.93;3.90;;;13.60;99.90;;;;;;4966062;28;20599;-82
2021/09/29 05:46:03;;;;;;;6.63;3.50;;;13.60;99.90;;;;;;4982345;28;20181;-82
2021/09/29 05:48:29;;;;;;;5.00;3.90;;;13.50;99.90;;;;;;4965711;28;20197;-82
2021/09/29 05:50:54;;;;;;;5.10;3.93;;;13.60;99.90;;;;;;4973173;28;20177;-82
2021/09/29 05:53:20;;;;;;;5.97;4.27;;;13.50;99.90;;;;;;4983723;28;20221;-83
2021/09/29 05:55:46;;;;;;;4.07;3.67;;;13.50;99.90;;;;;;4965225;28;20271;-82
2021/09/29 05:58:12;;;;;;;5.23;4.10;;;13.60;99.90;;;;;;4965922;28;20223;-82
2021/09/29 06:00:37;;;;;;;5.17;3.70;;;13.70;99.90;;;;;;4983085;28;20558;-83
2021/09/29 06:03:03;;;;;;;6.20;3.53;;;13.70;99.90;;;;;;4982571;28;20295;-82
2021/09/29 06:05:28;;;;;;;4.87;3.90;;;13.80;99.90;;;;;;4965148;28;20199;-82
2021/09/29 06:07:54;;;;;;;5.10;3.77;;;13.80;99.90;;;;;;4965542;28;20192;-82
2021/09/29 06:10:20;;;;;;;4.67;4.17;;;13.70;99.90;;;;;;4978162;28;20607;-82
2021/09/29 06:12:45;;;;;;;4.50;3.60;;;13.70;99.90;;;;;;4970279;28;20174;-82
2021/09/29 06:15:20;;;;;;;6.13;3.57;;;13.70;99.90;;;;;;4979122;28;20191;-82
2021/09/29 06:17:54;;;;;;;5.50;3.50;;;13.70;99.90;;;;;;4981640;28;20558;-83
2021/09/29 06:20:20;;;;;;;4.77;3.30;;;13.70;99.90;;;;;;4981146;28;20540;-83
2021/09/29 06:22:46;;;;;;;6.73;3.33;;;13.50;99.90;;;;;;4959703;28;20211;-81
2021/09/29 06:25:11;;;;;;;4.87;3.00;;;13.50;99.90;;;;;;4972797;28;20179;-81
2021/09/29 06:27:37;;;;;;;7.87;3.73;;;13.50;99.90;;;;;;4977380;28;20199;-82
2021/09/29 06:30:03;;;;;;;3.10;2.80;;;13.50;99.90;;;;;;4961384;28;20663;-82
2021/09/29 06:32:29;;;;;;;4.60;3.43;;;13.40;99.90;;;;;;4974974;28;20240;-81
2021/09/29 06:34:55;;;;;;;3.30;3.00;;;13.40;99.90;;;;;;4978320;28;20210;-82
2021/09/29 06:37:20;;;;;;;4.50;3.03;;;13.40;99.90;;;;;;4977323;28;20207;-82
2021/09/29 06:39:46;;;;;;;3.63;3.30;;;13.40;99.90;;;;;;4977670;28;20213;-82
2021/09/29 06:42:12;;;;;;;5.03;3.10;;;13.50;99.90;;;;;;4978280;28;20207;-82
2021/09/29 06:44:37;;;;;;;4.33;3.00;;;13.50;99.90;;;;;;4979367;28;20186;-82
2021/09/29 06:47:03;;;;;;;3.17;2.80;;;13.50;99.90;;;;;;4962778;28;20690;-82
2021/09/29 06:49:29;;;;;;;6.63;2.97;;;13.60;99.90;;;;;;4978930;28;20633;-82
2021/09/29 06:51:55;;;;;;;3.00;2.63;;;13.60;99.90;;;;;;4978349;28;20244;-82
2021/09/29 06:54:21;;;;;;;4.77;2.97;;;13.70;99.90;;;;;;4978847;28;20189;-80
2021/09/29 06:56:46;;;;;;;3.33;3.03;;;13.60;99.90;;;;;;4984441;28;20264;-81
2021/09/29 06:59:12;;;;;;;4.27;3.40;;;13.70;99.90;;;;;;4956270;28;20185;-81
2021/09/29 07:01:38;;;;;;;4.67;3.33;;;13.70;99.90;;;;;;4969413;28;20181;-82
2021/09/29 07:04:03;;;;;;;6.20;3.60;;;13.80;99.90;;;;;;4963666;28;20179;-83
2021/09/29 07:06:29;;;;;;;6.70;2.93;;;13.70;99.90;;;;;;4979256;28;20188;-82
2021/09/29 07:08:55;;;;;;;5.10;2.97;;;13.80;99.90;;;;;;4970644;28;20201;-83
2021/09/29 07:11:21;;;;;;;6.90;3.57;;;13.90;99.90;;;;;;4978018;28;20279;-82
2021/09/29 07:13:47;;;;;;;4.10;3.37;;;14.00;99.90;;;;;;4979819;28;20195;-82
2021/09/29 07:16:18;;;;;;;5.93;3.33;;;14.10;99.90;;;;;;4979707;28;20196;-83
2021/09/29 07:18:44;;;;;;;4.30;2.97;;;14.20;99.90;;;;;;4979813;28;20240;-83
2021/09/29 07:21:09;;;;;;;4.20;3.07;;;14.30;99.90;;;;;;4981357;28;20187;-83
2021/09/29 07:23:37;;;;;;;4.13;3.03;;;14.30;99.90;;;;;;4980880;28;20200;-83
2021/09/29 07:26:03;;;;;;;6.10;3.40;;;14.30;99.90;;;;;;4981890;28;20227;-83
2021/09/29 07:28:28;;;;;;;4.67;3.33;;;14.30;99.90;;;;;;4984983;28;20208;-83
2021/09/29 07:30:54;;;;;;;3.57;3.27;;;14.30;99.90;;;;;;4983631;28;20176;-82
2021/09/29 07:33:19;;;;;;;7.50;4.40;;;14.30;99.90;;;;;;4976493;28;20220;-83
2021/09/29 07:35:45;;;;;;;5.07;4.57;;;14.40;99.90;;;;;;4971058;28;20185;-82
2021/09/29 07:38:11;;;;;;;5.83;5.10;;;14.50;99.90;;;;;;4980771;28;20576;-85
2021/09/29 07:40:38;;;;;;;7.07;5.43;;;14.60;99.90;;;;;;4984768;28;20212;-83
2021/09/29 07:43:04;;;;;;;6.33;5.80;;;14.60;99.90;;;;;;4987392;28;20211;-84
2021/09/29 07:45:30;;;;;;;6.43;5.83;;;14.70;99.90;;;;;;4981745;28;20659;-83
2021/09/29 07:47:56;;;;;;;5.53;5.00;;;14.70;99.90;;;;;;4983971;28;20305;-82
2021/09/29 07:50:23;;;;;;;6.20;4.70;;;14.80;99.90;;;;;;4983942;28;20272;-82
2021/09/29 07:52:49;;;;;;;5.60;4.33;;;14.90;99.90;;;;;;4983351;28;20239;-82
2021/09/29 07:55:17;;;;;;;4.77;4.23;;;14.90;99.90;;;;;;4965663;28;20188;-82
2021/09/29 07:57:44;;;;;;;5.63;4.23;;;14.90;99.90;;;;;;4997693;23;20220;-78
2021/09/29 08:00:11;;;;;;;4.00;3.60;;;14.90;99.90;;;;;;5000539;28;20188;-78
2021/09/29 08:02:37;;;;;;;6.00;3.73;;;15.00;99.90;;;;;;4989669;28;20205;-78
2021/09/29 08:05:04;;;;;;;7.10;3.43;;;15.10;99.90;;;;;;4980857;28;20224;-78
2021/09/29 08:07:30;;;;;;;3.50;3.20;;;15.20;99.90;;;;;;4980286;28;20183;-78
2021/09/29 08:09:56;;;;;;;5.37;3.10;;;15.30;99.90;;;;;;4994638;28;20274;-78
2021/09/29 08:12:23;;;;;;;3.87;2.80;;;15.40;99.90;;;;;;4971313;28;20648;-78
2021/09/29 08:14:48;;;;;;;4.30;2.87;;;15.50;99.90;;;;;;4980941;28;20184;-79
2021/09/29 08:17:14;;;;;;;3.70;2.87;;;15.50;99.90;;;;;;4987207;28;20187;-78
2021/09/29 08:19:40;;;;;;;3.23;2.90;;;15.50;99.90;;;;;;4982059;28;20211;-78
2021/09/29 08:22:08;;;;;;;6.37;3.17;;;15.60;99.90;;;;;;4981021;28;20200;-78
2021/09/29 08:30:07;;;;;;;3.40;2.00;;;15.50;99.90;;;;;;4987187;28;20173;-79
2021/09/29 08:32:40;;;;;;;7.30;2.27;;;15.50;99.90;;;;;;4987367;28;20168;-78
2021/09/29 08:35:23;;;;;;;3.50;1.67;;;15.40;99.90;;;;;;4984530;28;20188;-78
2021/09/29 08:37:55;;;;;;;1.50;1.17;;;15.40;99.90;;;;;;5000684;28;20195;-78
2021/09/29 08:40:24;;;;;;;5.20;1.83;;;15.40;99.90;;;;;;4984081;28;20180;-79
2021/09/29 08:48:07;;;;;;;5.70;1.47;;;15.70;99.90;;;;;;4980611;28;20194;-79
2021/09/29 09:17:31;;;;;;;1.80;0.80;;;16.30;99.90;;;;;;4985545;28;20213;-81
2021/09/29 09:20:35;;;;;;;2.67;0.73;;;16.40;99.90;;;;;;4981245;28;20247;-80
2021/09/29 09:23:01;;;;;;;1.40;0.80;;;16.50;99.90;;;;;;4884588;29;20211;-79
2021/09/29 09:25:39;;;;;;;2.53;1.10;;;16.50;99.90;;;;;;4968426;28;20196;-80
2021/09/29 09:28:10;;;;;;;4.20;0.87;;;16.40;99.90;;;;;;4974248;28;20196;-79
2021/09/29 09:30:38;;;;;;;2.10;0.53;;;16.30;99.90;;;;;;4989067;28;20188;-81
2021/09/29 09:33:04;;;;;;;2.00;0.73;;;16.40;99.90;;;;;;4995990;28;20184;-81
2021/09/29 09:35:45;;;;;;;3.00;0.90;;;16.40;99.90;;;;;;4999360;28;20184;-80
2021/09/29 09:38:26;;;;;;;3.00;0.90;;;16.30;99.90;;;;;;4996585;28;20203;-81
2021/09/29 09:41:01;;;;;;;1.73;0.83;;;16.40;99.90;;;;;;4987112;28;20195;-79
2021/09/29 09:43:29;;;;;;;3.47;1.10;;;16.50;99.90;;;;;;5007529;28;20209;-80
2021/09/29 09:45:56;;;;;;;3.30;1.03;;;16.50;99.90;;;;;;4999155;28;20178;-81
2021/09/29 09:48:23;;;;;;;4.37;0.80;;;16.60;99.90;;;;;;4988439;28;20180;-80
2021/09/29 09:50:55;;;;;;;2.33;0.93;;;16.60;99.90;;;;;;4991735;28;20188;-79
2021/09/29 09:53:21;;;;;;;3.33;0.83;;;16.60;99.90;;;;;;4986973;28;20184;-80
2021/09/29 09:55:48;;;;;;;2.27;0.87;;;16.80;99.90;;;;;;4995834;28;20224;-81
2021/09/29 09:58:13;;;;;;;5.20;0.63;;;16.80;99.90;;;;;;5007962;28;20219;-81
2021/09/29 10:00:39;;;;;;;3.63;0.83;;;16.90;99.90;;;;;;4995985;28;20662;-81
2021/09/29 10:03:05;;;;;;;3.23;0.83;;;17.00;99.90;;;;;;4979573;28;20750;-79
2021/09/29 10:05:31;;;;;;;2.43;0.87;;;17.00;99.90;;;;;;5011904;28;20186;-81
2021/09/29 10:08:00;;;;;;;3.43;0.77;;;17.10;99.90;;;;;;5013236;28;20194;-81
2021/09/29 10:27:14;;;;;;;2.43;0.87;;;17.50;99.90;;;;;;4973759;28;20206;-81
2021/09/29 10:29:50;;;;;;;2.83;0.83;;;17.60;99.90;;;;;;4981027;28;20203;-81
2021/09/29 10:32:22;;;;;;;2.73;1.00;;;17.80;99.90;;;;;;4988506;28;20180;-82
2021/09/29 10:34:58;;;;;;;8.47;1.67;;;17.80;99.90;;;;;;4993234;28;20200;-81
2021/09/29 10:43:37;;;;;;;7.70;4.40;;;18.10;99.90;;;;;;4991641;28;20274;-80
2021/09/29 10:46:42;;;;;;;18.43;7.23;;;18.20;99.90;;;;;;4991500;28;20175;-81
2021/09/29 11:08:58;;;;;;;3.27;0.73;;;18.80;99.90;;;;;;4991244;28;20560;-82
2021/09/29 11:28:12;;;;;;;1.93;0.70;;;18.60;99.90;;;;;;4994733;28;20210;-82
2021/09/29 11:33:25;;;;;;;3.27;0.63;;;18.50;99.90;;;;;;4999164;28;20176;-81
2021/09/29 12:11:54;;;;;;;3.97;1.40;;;18.20;99.90;;;;;;4957949;28;20195;-81
2021/09/29 12:14:24;;;;;;;2.50;0.80;;;18.30;99.90;;;;;;4996977;28;20182;-81
2021/09/29 12:16:50;;;;;;;2.97;1.10;;;18.40;99.90;;;;;;5015521;28;20175;-81
2021/09/29 12:19:24;;;;;;;3.90;0.93;;;18.50;99.90;;;;;;4998241;28;20230;-81
2021/09/29 12:21:58;;;;;;;4.77;1.20;;;18.50;99.90;;;;;;4985228;28;20159;-82
2021/09/29 12:24:32;;;;;;;2.87;0.80;;;18.60;99.90;;;;;;5002483;28;20160;-79
2021/09/29 12:27:01;;;;;;;4.03;1.20;;;18.70;99.90;;;;;;5000499;28;20194;-80
2021/09/29 12:29:48;;;;;;;3.10;1.23;;;18.70;99.90;;;;;;5003158;28;20230;-82
2021/09/29 12:38:05;;;;;;;3.93;0.90;;;18.70;99.90;;;;;;5006100;28;20218;-81
2021/09/29 12:40:34;;;;;;;3.33;0.93;;;18.80;99.90;;;;;;5014073;28;20210;-80
2021/09/29 12:43:11;;;;;;;4.53;1.20;;;18.90;99.90;;;;;;5014462;28;20206;-81
2021/09/29 12:45:40;;;;;;;2.73;0.90;;;18.90;99.90;;;;;;4997166;28;20187;-80
2021/09/29 12:48:08;;;;;;;4.37;1.20;;;19.00;99.90;;;;;;4994517;28;20635;-81
2021/09/29 12:50:43;;;;;;;6.23;1.00;;;18.90;99.90;;;;;;4999612;28;20184;-81
2021/09/29 12:56:00;;;;;;;3.00;1.00;;;18.90;99.90;;;;;;5011618;28;20306;-83
2021/09/29 12:58:29;;;;;;;3.87;0.93;;;19.00;99.90;;;;;;4995941;28;20234;-84
2021/09/29 13:00:56;;;;;;;2.20;0.90;;;19.00;99.90;;;;;;4996946;28;20188;-84
2021/09/29 13:03:22;;;;;;;1.70;0.80;;;18.90;99.90;;;;;;4997068;28;20209;-84
2021/09/29 13:05:48;;;;;;;3.13;0.87;;;19.00;99.90;;;;;;4995972;28;20251;-84
2021/09/29 13:08:18;;;;;;;3.10;0.80;;;19.00;99.90;;;;;;5013324;28;20264;-84
2021/09/29 13:10:44;;;;;;;8.10;1.30;;;18.90;99.90;;;;;;5005781;28;20176;-84
2021/09/29 13:13:11;;;;;;;2.77;0.90;;;19.00;99.90;;;;;;5011494;28;20661;-85
2021/09/29 13:15:43;;;;;;;2.97;0.80;;;19.10;99.90;;;;;;4995510;28;20191;-84
2021/09/29 13:18:28;;;;;;;2.73;0.90;;;19.00;99.90;;;;;;5012546;28;20199;-84
2021/09/29 13:21:30;;;;;;;4.13;0.90;;;19.10;99.90;;;;;;4996265;28;20207;-85
2021/09/29 13:23:55;;;;;;;2.27;0.80;;;19.10;99.90;;;;;;5009733;28;20220;-85
2021/09/29 13:37:05;;;;;;;2.07;0.73;;;19.00;99.90;;;;;;5013381;28;20193;-83
2021/09/29 13:39:30;;;;;;;1.57;0.70;;;19.00;99.90;;;;;;4994722;28;20238;-84
2021/09/29 13:41:56;;;;;;;3.40;0.90;;;19.10;99.90;;;;;;4995277;28;20764;-84
2021/09/29 13:44:25;;;;;;;4.90;1.23;;;19.20;99.90;;;;;;5013417;28;20222;-84
2021/09/29 13:46:51;;;;;;;2.23;1.00;;;19.20;99.90;;;;;;4995924;28;20211;-84
2021/09/29 13:49:17;;;;;;;2.80;0.90;;;19.10;99.90;;;;;;4995967;28;20199;-84
2021/09/29 13:51:47;;;;;;;2.33;0.70;;;19.00;99.90;;;;;;4997351;28;20182;-84
2021/09/29 13:54:24;;;;;;;6.70;1.23;;;19.00;99.90;;;;;;5006286;28;20183;-84
2021/09/29 13:56:58;;;;;;;6.30;1.00;;;19.10;99.90;;;;;;5013122;28;20180;-85
2021/09/29 13:59:35;;;;;;;1.93;0.77;;;19.10;99.90;;;;;;5013272;23;20317;-85
2021/09/29 14:02:22;;;;;;;4.50;0.90;;;18.90;99.90;;;;;;4967678;28;20211;-86
2021/09/29 14:29:30;;;;;;;0.90;0.60;;;18.70;99.90;;;;;;4984420;28;20223;-85
2021/09/29 14:34:25;;;;;;;3.10;0.70;;;18.60;99.90;;;;;;4981475;28;20247;-85
2021/09/29 14:36:51;;;;;;;0.93;0.70;;;18.40;99.90;;;;;;4984411;28;20233;-85
2021/09/29 14:39:17;;;;;;;3.83;0.67;;;18.20;99.90;;;;;;4984631;28;20270;-85
2021/09/29 14:41:43;;;;;;;1.70;0.70;;;18.20;99.90;;;;;;4984417;28;20270;-85
2021/09/29 14:44:10;;;;;;;2.27;0.50;;;18.10;99.90;;;;;;4966519;28;20202;-85
2021/09/29 14:46:36;;;;;;;2.37;0.53;;;18.00;99.90;;;;;;4985301;28;20177;-85
2021/09/29 14:49:03;;;;;;;2.37;0.90;;;18.00;99.90;;;;;;4967598;28;20202;-85
2021/09/29 14:51:29;;;;;;;2.07;0.87;;;18.00;99.90;;;;;;4968163;28;20194;-85
2021/09/29 14:53:56;;;;;;;3.23;0.57;;;18.00;99.90;;;;;;4985801;28;20187;-86
2021/09/29 14:56:22;;;;;;;3.53;0.60;;;17.80;99.90;;;;;;4967825;28;20187;-85
2021/09/29 14:58:48;;;;;;;1.77;0.63;;;17.70;99.90;;;;;;4984443;28;20747;-85
2021/09/29 15:01:14;;;;;;;3.00;1.10;;;17.60;99.90;;;;;;4985539;28;20247;-85
2021/09/29 15:03:41;;;;;;;1.87;0.40;;;17.60;99.90;;;;;;4984409;28;20705;-86
2021/09/29 15:06:07;;;;;;;0.53;0.30;;;17.30;99.90;;;;;;4985157;28;20259;-85
2021/09/29 15:08:36;;;;;;;0.90;0.40;;;17.30;99.90;;;;;;4984224;28;20632;-85
2021/09/29 15:11:03;;;;;;;1.63;0.40;;;17.20;99.90;;;;;;4984105;28;20207;-85
2021/09/29 15:13:32;;;;;;;3.37;0.30;;;17.20;99.90;;;;;;4984081;28;20202;-85
2021/09/29 15:16:02;;;;;;;0.50;0.30;;;17.00;99.90;;;;;;4984225;28;20186;-85
2021/09/29 15:18:35;;;;;;;1.50;0.30;;;16.80;99.90;;;;;;4983793;28;20199;-85
2021/09/29 15:50:54;;;;;;;1.20;0.40;;;16.30;99.90;;;;;;4983085;28;20193;-85
2021/09/29 15:53:36;;;;;;;0.50;0.50;;;16.30;99.90;;;;;;4965468;28;20550;-85
2021/09/29 15:56:06;;;;;;;1.03;0.63;;;16.40;99.90;;;;;;4966249;28;20178;-85
2021/09/29 16:01:30;;;;;;;0.43;0.27;;;16.10;99.90;;;;;;4983093;28;20305;-85
2021/09/29 16:06:36;;;;;;;1.03;0.50;;;16.10;99.90;;;;;;4990553;28;20523;-85
2021/09/29 16:30:56;;;;;;;2.03;0.60;;;16.30;99.90;;;;;;4982473;28;20185;-79
2021/09/29 16:36:07;;;;;;;0.80;0.50;;;16.20;99.90;;;;;;4983486;28;20183;-80
2021/09/29 16:38:33;;;;;;;2.87;0.70;;;16.20;99.90;;;;;;4965294;28;20203;-79
2021/09/29 16:40:59;;;;;;;2.90;0.50;;;16.20;99.90;;;;;;4964991;28;20529;-79
2021/09/29 16:43:24;;;;;;;0.90;0.40;;;16.20;99.90;;;;;;4968845;28;20207;-79
2021/09/29 16:45:51;;;;;;;0.50;0.40;;;16.20;99.90;;;;;;4980969;28;20310;-78
2021/09/29 16:48:19;;;;;;;0.67;0.30;;;16.10;99.90;;;;;;4977772;28;20207;-79
2021/09/29 16:51:03;;;;;;;0.20;0.13;;;16.10;99.90;;;;;;4980956;28;20550;-79
2021/09/29 16:53:35;;;;;;;1.63;0.20;;;15.90;99.90;;;;;;4981313;28;20226;-79
2021/09/29 16:56:01;;;;;;;1.60;0.33;;;15.80;99.90;;;;;;4981001;28;20181;-79
2021/09/29 16:58:40;;;;;;;0.60;0.50;;;15.70;99.90;;;;;;4969495;28;20185;-79